Royal Oak Township, Michigan
Current Conditions -  °F | °C
As of 6:53 AM on Wednesday 28 Jan 2015 (Local Time) from KDET Reporting Station
Clear Clear  
Wind Chill: 14°   Ceiling: Unl
Heat Index: 14°   Visibility: 10mi
Dew Point:   Wind: 3mph
Humidity: 77%   Direction: 310°NW
Pressure: 30.34"   Gusts: NA
Location:  42.4581°N, 83.135°W
Report Text: KDET 281153Z 31003KT 10SM CLR M10/M13 A3034 RMK AO2 SLP285 I1000 I6000 T11001133 11072 21106 52029
Loading
Personal Weather Stations






























Interactive Weather Map New forecast layout! Learn more

10-Day Weather Forecast

Advertisements
Track Severe Weather on mobile